^^
Datos históricos de la estación: Murcia-Puente Tocinos
Diario Informe para Agosto 26, 2019 Unidades:  Métrico    Ingés   Ambas
Diario Semanal Mensual Anual
  Máxima: Mínima: Promedio:
Temperatura: 22 °C 10.9 °C 15.8 °C
Punto de rocio: 12.9 °C 8.4 °C 10.3 °C
Humedad: 85% 44% 71%
Velocidad viento: 14km/h 0km/h 6.4km/h
Racha viento: 27.8km/h - -
Viento- - SSO
Presión: 1014.8 hPa 1009.6 hPa -
Precipitación: 0.0 mm    
 
 
Tabla de datos para Agosto 26, 2019
Hora Temperatura Punto de rocio Presión Viento Velocidad viento Racha viento Humedad Intensidad lluvia(por hora) Nubes
00:04 14.8 °C 10.3 °C 1014.6 hPa SE 5 km/h 10 km/h 74.3% 0.0 mm
00:09 14.4 °C 10.3 °C 1014.8 hPa SSE 5 km/h 14.8 km/h 76% 0.0 mm
00:14 14.3 °C 10.3 °C 1014.8 hPa Sur 7.3 km/h 14.5 km/h 77% 0.0 mm
00:19 14.3 °C 10.3 °C 1014.8 hPa Sur 8.4 km/h 11.3 km/h 77% 0.0 mm
00:24 14.3 °C 10.3 °C 1014.8 hPa Sur 7.8 km/h 11.3 km/h 77% 0.0 mm
00:29 14.3 °C 10.4 °C 1014.8 hPa SSO 7.6 km/h 11.3 km/h 77% 0.0 mm
00:34 14.5 °C 10.4 °C 1014.8 hPa SSE 6.4 km/h 9.7 km/h 76.3% 0.0 mm
00:39 14.5 °C 10.3 °C 1014.8 hPa ENE 5.8 km/h 4.8 km/h 76% 0.0 mm
00:44 14.4 °C 10.3 °C 1014.7 hPa Este 3.8 km/h 5.8 km/h 76.3% 0.0 mm
00:49 14.3 °C 10.3 °C 1014.7 hPa ESE 2.9 km/h 6.4 km/h 77% 0.0 mm
00:54 14.2 °C 10.2 °C 1014.7 hPa NNO 2.9 km/h 6.4 km/h 77.2% 0.0 mm
00:59 14 °C 10.2 °C 1014.6 hPa NO 2.9 km/h 6.4 km/h 78% 0.0 mm
01:04 13.8 °C 10.1 °C 1014.6 hPa NO 2.9 km/h 6.4 km/h 78.3% 0.0 mm
01:09 13.8 °C 10.2 °C 1014.6 hPa NO 2.9 km/h 9.3 km/h 79% 0.0 mm
01:14 13.8 °C 10.2 °C 1014.5 hPa Oeste 3.6 km/h 9.7 km/h 79% 0.0 mm
01:19 13.7 °C 10.1 °C 1014.5 hPa SSO 3.9 km/h 9.5 km/h 79% 0.0 mm
01:24 13.7 °C 10.1 °C 1014.5 hPa SSO 4.4 km/h 9.7 km/h 79.2% 0.0 mm
01:29 13.7 °C 10.2 °C 1014.4 hPa OSO 4.7 km/h 8 km/h 79.3% 0.0 mm
01:34 13.7 °C 10.1 °C 1014.4 hPa OSO 4.7 km/h 8 km/h 79% 0.0 mm
01:39 13.7 °C 10 °C 1014.4 hPa OSO 4.7 km/h 8 km/h 79% 0.0 mm
01:44 13.6 °C 10 °C 1014.2 hPa OSO 3.6 km/h 6.4 km/h 79% 0.0 mm
01:49 13.5 °C 10 °C 1014.2 hPa ENE 3.2 km/h 8 km/h 79% 0.0 mm
01:54 13.3 °C 9.9 °C 1014.2 hPa Este 3.7 km/h 8 km/h 79.8% 0.0 mm
01:59 13.2 °C 10 °C 1013.9 hPa Este 3.9 km/h 8 km/h 80.6% 0.0 mm
02:04 13.2 °C 9.9 °C 1013.9 hPa ESE 2.7 km/h 7.6 km/h 81% 0.0 mm
02:09 13.1 °C 10 °C 1013.9 hPa SE 2.2 km/h 8.7 km/h 81.4% 0.0 mm
02:14 12.9 °C 9.9 °C 1013.8 hPa ESE 3.3 km/h 9.7 km/h 82% 0.0 mm
02:19 12.9 °C 9.9 °C 1013.8 hPa ESE 3.9 km/h 9.7 km/h 82% 0.0 mm
02:24 12.9 °C 9.9 °C 1013.8 hPa SSE 3.2 km/h 9.5 km/h 82% 0.0 mm
02:29 12.9 °C 9.9 °C 1013.8 hPa SSE 2.9 km/h 10 km/h 82% 0.0 mm
02:34 12.9 °C 9.9 °C 1013.8 hPa Sur 4.9 km/h 9.7 km/h 82% 0.0 mm
02:39 12.9 °C 9.9 °C 1013.8 hPa SSO 5.8 km/h 9.7 km/h 82% 0.0 mm
02:44 12.9 °C 9.8 °C 1013.8 hPa Sur 5.8 km/h 9.7 km/h 81.3% 0.0 mm
02:49 12.9 °C 9.7 °C 1013.8 hPa SSE 5.8 km/h 8.4 km/h 81% 0.0 mm
02:54 12.8 °C 9.7 °C 1013.9 hPa Sur 5.2 km/h 8 km/h 81.4% 0.0 mm
02:59 12.8 °C 9.8 °C 1013.9 hPa Sur 5 km/h 8.4 km/h 82% 0.0 mm
03:04 12.7 °C 9.7 °C 1013.9 hPa SSO 4.8 km/h 8 km/h 82% 0.0 mm
03:09 12.8 °C 9.8 °C 1014.0 hPa Oeste 4.7 km/h 8 km/h 81.9% 0.0 mm
03:14 12.8 °C 9.6 °C 1014.0 hPa OSO 3.4 km/h 6.4 km/h 81% 0.0 mm
03:19 12.8 °C 9.6 °C 1014.0 hPa SO 2.9 km/h 6.4 km/h 81% 0.0 mm
03:24 12.7 °C 9.5 °C 1014.0 hPa SO 2.9 km/h 7.4 km/h 81% 0.0 mm
03:29 12.7 °C 9.7 °C 1013.9 hPa SSO 2.9 km/h 8 km/h 81.9% 0.0 mm
03:34 12.6 °C 9.6 °C 1013.9 hPa SSE 4.1 km/h 8 km/h 82% 0.0 mm
03:39 12.6 °C 9.6 °C 1013.9 hPa Sur 4.7 km/h 8 km/h 82% 0.0 mm
03:44 12.6 °C 9.6 °C 1013.9 hPa SO 4.7 km/h 10 km/h 82% 0.0 mm
03:49 12.7 °C 9.6 °C 1013.9 hPa SO 4.7 km/h 10 km/h 81.5% 0.0 mm
03:54 12.7 °C 9.5 °C 1013.9 hPa SO 5.8 km/h 11.1 km/h 81% 0.0 mm
03:59 12.7 °C 9.5 °C 1013.9 hPa SO 6.5 km/h 11.3 km/h 81% 0.0 mm
04:04 12.7 °C 9.4 °C 1013.9 hPa SO 6.8 km/h 11.3 km/h 80.6% 0.0 mm
04:09 12.7 °C 9.3 °C 1013.9 hPa SO 6.9 km/h 10 km/h 80% 0.0 mm
04:14 12.7 °C 9.3 °C 1013.8 hPa OSO 6.6 km/h 9.7 km/h 80% 0.0 mm
04:19 12.7 °C 9.3 °C 1013.8 hPa OSO 6.5 km/h 8 km/h 80% 0.0 mm
04:24 12.6 °C 9.2 °C 1013.8 hPa OSO 4 km/h 6.4 km/h 80% 0.0 mm
04:29 12.6 °C 9.2 °C 1013.8 hPa OSO 2.9 km/h 3.9 km/h 80% 0.0 mm
04:34 12.3 °C 9 °C 1013.8 hPa Sur 0.9 km/h 4.7 km/h 80% 0.0 mm
04:39 12.1 °C 8.8 °C 1013.8 hPa Calm   8.4 km/h 80.4% 0.0 mm
04:44 11.8 °C 8.8 °C 1013.8 hPa OSO 2.6 km/h 8.4 km/h 81.8% 0.0 mm
04:49 11.7 °C 9 °C 1013.8 hPa OSO 3.9 km/h 9.5 km/h 83.5% 0.0 mm
04:54 11.9 °C 9.2 °C 1013.8 hPa OSO 5.2 km/h 11.1 km/h 83.9% 0.0 mm
04:59 12.2 °C 9.3 °C 1013.7 hPa OSO 5.8 km/h 11.3 km/h 82.7% 0.0 mm
05:04 12.3 °C 9.3 °C 1013.7 hPa SO 6.6 km/h 9.7 km/h 82% 0.0 mm
05:09 12.3 °C 9.2 °C 1013.9 hPa Sur 6.9 km/h 9.7 km/h 81.3% 0.0 mm
05:14 12.3 °C 9.1 °C 1013.9 hPa Sur 5.6 km/h 8 km/h 81% 0.0 mm
05:19 12.2 °C 9.1 °C 1013.9 hPa Oeste 5 km/h 8 km/h 81% 0.0 mm
05:24 12.2 °C 9 °C 1014.0 hPa SO 3.2 km/h 9.5 km/h 81% 0.0 mm
05:29 11.8 °C 8.6 °C 1014.0 hPa SSE 2.2 km/h 13.7 km/h 80.6% 0.0 mm
05:34 11.3 °C 8.5 °C 1014.0 hPa SSE 6.4 km/h 17.2 km/h 82.6% 0.0 mm
05:39 11.2 °C 8.6 °C 1014.0 hPa SSE 8.4 km/h 22.2 km/h 83.9% 0.0 mm
05:44 11 °C 8.5 °C 1013.8 hPa Sur 11 km/h 22.5 km/h 84.5% 0.0 mm
05:49 11 °C 8.5 °C 1013.8 hPa Sur 12.2 km/h 19.3 km/h 85% 0.0 mm
05:54 11.2 °C 8.8 °C 1013.8 hPa SSO 12 km/h 17.7 km/h 85% 0.0 mm
05:59 11.5 °C 9 °C 1013.6 hPa SSO 11.9 km/h 14.5 km/h 84.7% 0.0 mm
06:04 11.8 °C 9.1 °C 1013.6 hPa SO 9.4 km/h 11.3 km/h 83.5% 0.0 mm
06:09 12 °C 9 °C 1013.7 hPa OSO 8.4 km/h 10.3 km/h 82.2% 0.0 mm
06:14 11.9 °C 8.7 °C 1013.7 hPa Oeste 7 km/h 11.3 km/h 81.1% 0.0 mm
06:19 11.7 °C 8.8 °C 1013.7 hPa OSO 6.5 km/h 14.8 km/h 81.9% 0.0 mm
06:24 11.6 °C 8.8 °C 1013.7 hPa OSO 7.2 km/h 17.2 km/h 82.7% 0.0 mm
06:29 11.4 °C 8.6 °C 1013.6 hPa OSO 7.6 km/h 17.7 km/h 83% 0.0 mm
06:34 11.4 °C 8.6 °C 1013.6 hPa SO 8.1 km/h 12.9 km/h 83.1% 0.0 mm
06:39 11.4 °C 8.7 °C 1013.8 hPa SE 8.4 km/h 11.1 km/h 83.5% 0.0 mm
06:44 11.4 °C 8.6 °C 1013.8 hPa SSE 6.6 km/h 11.3 km/h 83% 0.0 mm
06:49 11.3 °C 8.6 °C 1013.8 hPa SSE 5.8 km/h 14.8 km/h 83.9% 0.0 mm
06:54 11.2 °C 8.6 °C 1013.8 hPa Sur 7.8 km/h 16.7 km/h 84% 0.0 mm
06:59 11.1 °C 8.5 °C 1013.7 hPa Sur 8.7 km/h 16.7 km/h 84% 0.0 mm
07:04 10.9 °C 8.4 °C 1013.7 hPa SSO 9.3 km/h 14.8 km/h 84.7% 0.0 mm
07:09 11 °C 8.6 °C 1013.8 hPa SSO 9.5 km/h 15.6 km/h 85% 0.0 mm
07:14 11.2 °C 8.7 °C 1013.8 hPa SSO 9.8 km/h 16.1 km/h 85% 0.0 mm
07:19 11.2 °C 8.6 °C 1013.8 hPa SSO 10 km/h 14.5 km/h 84% 0.0 mm
07:24 11.2 °C 8.6 °C 1013.8 hPa Sur 8.3 km/h 11.3 km/h 84% 0.0 mm
07:29 11.3 °C 8.7 °C 1013.8 hPa Sur 7.6 km/h 8 km/h 84.3% 0.0 mm
07:34 11.4 °C 8.7 °C 1013.8 hPa SSO 5 km/h 8 km/h 84% 0.0 mm
07:39 11.4 °C 8.8 °C 1013.9 hPa SO 3.9 km/h 8 km/h 84% 0.0 mm
07:44 11.4 °C 8.8 °C 1013.9 hPa SO 3.2 km/h 5.6 km/h 83.7% 0.0 mm
07:49 11.4 °C 8.6 °C 1013.9 hPa OSO 2.9 km/h 8.4 km/h 83% 0.0 mm
07:54 11.4 °C 8.6 °C 1013.9 hPa Oeste 4.1 km/h 8 km/h 83% 0.0 mm
07:59 11.3 °C 8.5 °C 1013.8 hPa OSO 4.7 km/h 8.4 km/h 83% 0.0 mm
08:04 11.2 °C 8.5 °C 1013.8 hPa Oeste 4.9 km/h 8 km/h 83% 0.0 mm
08:09 11.2 °C 8.6 °C 1013.9 hPa OSO 5 km/h 8.4 km/h 83.7% 0.0 mm
08:14 11.2 °C 8.6 °C 1013.9 hPa OSO 5.5 km/h 8.4 km/h 84% 0.0 mm
08:19 11.2 °C 8.6 °C 1013.9 hPa OSO 5.8 km/h 8.4 km/h 84% 0.0 mm
08:24 11.3 °C 8.6 °C 1014.1 hPa OSO 5.2 km/h 8 km/h 83.9% 0.0 mm
08:29 11.3 °C 8.7 °C 1014.1 hPa SO 5 km/h 8 km/h 84% 0.0 mm
08:34 11.5 °C 8.8 °C 1014.1 hPa Sur 4.8 km/h 8 km/h 83.3% 0.0 mm
08:39 11.7 °C 8.9 °C 1014.1 hPa Sur 4.7 km/h 8 km/h 83% 0.0 mm
08:44 11.8 °C 8.9 °C 1014.1 hPa SSE 4.7 km/h 8 km/h 82.2% 0.0 mm
08:49 11.9 °C 9 °C 1014.1 hPa SSE 4.7 km/h 3.2 km/h 82% 0.0 mm
08:54 12.1 °C 9 °C 1014.1 hPa SSE 1.4 km/h 5 km/h 81.6% 0.0 mm
08:59 12.1 °C 8.9 °C 1014.1 hPa Calm   5.8 km/h 81% 0.0 mm
09:04 12.2 °C 9 °C 1014.1 hPa SSE 2.1 km/h 6.4 km/h 81% 0.0 mm
09:09 12.2 °C 9.1 °C 1014.1 hPa SSE 2.9 km/h 5 km/h 81% 0.0 mm
09:14 12.3 °C 9 °C 1014.1 hPa SSE 2.5 km/h 7.4 km/h 80.4% 0.0 mm
09:19 12.3 °C 8.9 °C 1014.1 hPa Sur 2.2 km/h 8 km/h 80% 0.0 mm
09:24 12.4 °C 9 °C 1014.1 hPa Sur 3.3 km/h 8 km/h 80% 0.0 mm
09:29 12.5 °C 9.2 °C 1014.0 hPa SSO 3.9 km/h 5.6 km/h 80% 0.0 mm
09:34 12.7 °C 9.3 °C 1014.0 hPa SO 3.2 km/h 5.6 km/h 80% 0.0 mm
09:39 12.8 °C 9.4 °C 1014.0 hPa SO 2.9 km/h 5.8 km/h 80% 0.0 mm
09:44 13 °C 9.5 °C 1014.0 hPa SO 3.1 km/h 7.4 km/h 79.3% 0.0 mm
09:49 13.1 °C 9.5 °C 1014.0 hPa SO 3.2 km/h 9.5 km/h 78.7% 0.0 mm
09:54 13.2 °C 9.4 °C 1014.2 hPa SO 4.4 km/h 9.7 km/h 78% 0.0 mm
09:59 13.3 °C 9.6 °C 1014.2 hPa SSO 5 km/h 9.3 km/h 78% 0.0 mm
10:04 13.5 °C 9.7 °C 1014.2 hPa SSO 5 km/h 9.7 km/h 77.3% 0.0 mm
10:09 13.8 °C 9.7 °C 1014.5 hPa Sur 5 km/h 9.3 km/h 76.4% 0.0 mm
10:14 14.2 °C 9.7 °C 1014.5 hPa SSO 5 km/h 9.7 km/h 74.9% 0.0 mm
10:19 14.3 °C 9.8 °C 1014.5 hPa SSO 5 km/h 9.3 km/h 74% 0.0 mm
10:24 14.6 °C 9.9 °C 1014.6 hPa Sur 5.6 km/h 11.1 km/h 73.3% 0.0 mm
10:29 15 °C 10 °C 1014.6 hPa SSE 5.8 km/h 11.3 km/h 72.1% 0.0 mm
10:34 15.3 °C 10 °C 1014.6 hPa SSO 7 km/h 11.3 km/h 70.8% 0.0 mm
10:39 15.5 °C 10.1 °C 1014.7 hPa SSO 7.6 km/h 11.3 km/h 70% 0.0 mm
10:44 15.8 °C 10 °C 1014.7 hPa Sur 7.1 km/h 14 km/h 68.8% 0.0 mm
10:49 16 °C 10 °C 1014.7 hPa SSO 6.9 km/h 14.8 km/h 67.4% 0.0 mm
10:54 16.3 °C 10.1 °C 1014.7 hPa Sur 6.9 km/h 11.3 km/h 66.7% 0.0 mm
10:59 16.7 °C 10 °C 1014.7 hPa Sur 6.9 km/h 11.1 km/h 64.8% 0.0 mm
11:04 16.9 °C 10.1 °C 1014.7 hPa Sur 6.6 km/h 11.3 km/h 64% 0.0 mm
11:09 17.2 °C 10.3 °C 1014.7 hPa Sur 6.5 km/h 14.8 km/h 63.9% 0.0 mm
11:14 17.3 °C 10.3 °C 1014.3 hPa Sur 7.8 km/h 14.5 km/h 63.7% 0.0 mm
11:19 17.3 °C 10.3 °C 1014.3 hPa Sur 8.4 km/h 13 km/h 63.3% 0.0 mm
11:24 17.5 °C 10.3 °C 1014.3 hPa Sur 7.4 km/h 13 km/h 62.8% 0.0 mm
11:29 17.7 °C 10.1 °C 1014.3 hPa SSO 6.9 km/h 13 km/h 61.2% 0.0 mm
11:34 17.7 °C 10.1 °C 1014.3 hPa SSO 7.9 km/h 13 km/h 61% 0.0 mm
11:39 17.8 °C 10.1 °C 1014.3 hPa SSO 8.4 km/h 14.8 km/h 60.6% 0.0 mm
11:44 17.9 °C 10.1 °C 1014.2 hPa SSO 7.4 km/h 14.5 km/h 60.2% 0.0 mm
11:49 18 °C 10.1 °C 1014.2 hPa SSO 6.9 km/h 13 km/h 59.9% 0.0 mm
11:54 18.2 °C 10.3 °C 1014.2 hPa SSO 6.1 km/h 12.9 km/h 60% 0.0 mm
11:59 18.3 °C 10.2 °C 1013.8 hPa SO 5.8 km/h 9.7 km/h 59% 0.0 mm
12:04 18.5 °C 10.1 °C 1013.8 hPa OSO 5.8 km/h 12.2 km/h 57.9% 0.0 mm
12:09 18.5 °C 9.9 °C 1013.8 hPa SO 5.8 km/h 13 km/h 57% 0.0 mm
12:14 18.6 °C 9.9 °C 1013.5 hPa SSO 7 km/h 13 km/h 57% 0.0 mm
12:19 18.7 °C 9.7 °C 1013.5 hPa SO 7.6 km/h 13 km/h 56.1% 0.0 mm
12:24 18.8 °C 9.8 °C 1013.5 hPa OSO 7.6 km/h 12.9 km/h 56% 0.0 mm
12:29 18.9 °C 9.9 °C 1013.1 hPa SO 7.6 km/h 11.3 km/h 56% 0.0 mm
12:34 19.1 °C 10 °C 1013.1 hPa SO 6.8 km/h 13 km/h 55.9% 0.0 mm
12:39 19.2 °C 10 °C 1013.1 hPa SO 6.5 km/h 13 km/h 55% 0.0 mm
12:44 19.3 °C 10.1 °C 1012.8 hPa SSO 7.8 km/h 13 km/h 55.3% 0.0 mm
12:49 19.3 °C 10.2 °C 1012.8 hPa Sur 8.4 km/h 13.7 km/h 55.5% 0.0 mm
12:54 19.4 °C 10 °C 1012.8 hPa Sur 8.6 km/h 14.8 km/h 54.7% 0.0 mm
12:59 19.4 °C 10 °C 1012.6 hPa Sur 8.7 km/h 14.5 km/h 54.5% 0.0 mm
13:04 19.5 °C 10 °C 1012.6 hPa SSO 8.5 km/h 11.3 km/h 54% 0.0 mm
13:09 19.6 °C 10 °C 1012.6 hPa Sur 8.4 km/h 16.4 km/h 53.8% 0.0 mm
13:14 19.8 °C 9.9 °C 1012.2 hPa SSO 7.8 km/h 16.7 km/h 53% 0.0 mm
13:19 19.8 °C 9.9 °C 1012.2 hPa SSO 7.6 km/h 16.1 km/h 52.8% 0.0 mm
13:24 20 °C 9.8 °C 1012.2 hPa Sur 7.1 km/h 11.3 km/h 52% 0.0 mm
13:29 20.2 °C 9.5 °C 1011.9 hPa OSO 6.9 km/h 14.8 km/h 50.6% 0.0 mm
13:34 20.3 °C 9.7 °C 1011.9 hPa SO 6.6 km/h 14.5 km/h 50.6% 0.0 mm
13:39 20.5 °C 9.8 °C 1011.9 hPa Oeste 6.5 km/h 11.3 km/h 50% 0.0 mm
13:44 20.6 °C 9.6 °C 1011.7 hPa OSO 6 km/h 14.8 km/h 49.4% 0.0 mm
13:49 20.7 °C 9.5 °C 1011.7 hPa Oeste 5.8 km/h 14.8 km/h 49% 0.0 mm
13:54 20.7 °C 9.6 °C 1011.7 hPa Oeste 7.8 km/h 17.2 km/h 49% 0.0 mm
13:59 20.7 °C 9.6 °C 1011.5 hPa OSO 8.7 km/h 17.7 km/h 49% 0.0 mm
14:04 20.8 °C 9.5 °C 1011.5 hPa Oeste 9.3 km/h 15.6 km/h 48.5% 0.0 mm
14:09 20.8 °C 9.7 °C 1011.5 hPa ONO 9.5 km/h 16.1 km/h 49% 0.0 mm
14:14 20.9 °C 9.7 °C 1011.5 hPa ONO 8.2 km/h 13.7 km/h 48.9% 0.0 mm
14:19 20.9 °C 9.7 °C 1011.5 hPa ONO 7.6 km/h 14.5 km/h 48.6% 0.0 mm
14:24 21 °C 9.7 °C 1011.5 hPa Oeste 8.1 km/h 14.8 km/h 48.3% 0.0 mm
14:29 21 °C 9.6 °C 1011.3 hPa OSO 8.4 km/h 14.5 km/h 48% 0.0 mm
14:34 21.2 °C 9.7 °C 1011.3 hPa Oeste 8.4 km/h 14.8 km/h 48.1% 0.0 mm
14:39 21.3 °C 9.7 °C 1011.3 hPa OSO 8.4 km/h 14.5 km/h 47.7% 0.0 mm
14:44 21.3 °C 9.6 °C 1011.0 hPa Oeste 7.4 km/h 12.9 km/h 47.2% 0.0 mm
14:49 21.3 °C 9.6 °C 1011.0 hPa SO 6.9 km/h 13 km/h 47.3% 0.0 mm
14:54 21.4 °C 9.6 °C 1011.0 hPa SSO 6.9 km/h 12.9 km/h 47% 0.0 mm
14:59 21.4 °C 9.6 °C 1010.9 hPa SO 6.9 km/h 11.3 km/h 47% 0.0 mm
15:04 21.6 °C 9.8 °C 1010.9 hPa OSO 6.6 km/h 11.3 km/h 47% 0.0 mm
15:09 21.7 °C 9.8 °C 1010.9 hPa SO 6.5 km/h 9.7 km/h 47% 0.0 mm
15:14 21.8 °C 9.9 °C 1010.8 hPa SO 5.4 km/h 11.1 km/h 46.8% 0.0 mm
15:19 21.9 °C 9.8 °C 1010.8 hPa SSE 5 km/h 11.3 km/h 46% 0.0 mm
15:24 21.9 °C 9.9 °C 1010.8 hPa SO 4.2 km/h 8 km/h 46.4% 0.0 mm
15:29 21.9 °C 10.1 °C 1010.6 hPa OSO 3.9 km/h 6.4 km/h 47% 0.0 mm
15:34 21.9 °C 10 °C 1010.6 hPa Oeste 3.4 km/h 4.8 km/h 46.7% 0.0 mm
15:39 22 °C 9.5 °C 1010.6 hPa SO 3.2 km/h 12.2 km/h 45.1% 0.0 mm
15:44 21.9 °C 9.1 °C 1010.5 hPa SSO 4.2 km/h 13 km/h 44% 0.0 mm
15:49 21.9 °C 9.3 °C 1010.5 hPa SSO 4.7 km/h 9.7 km/h 44.4% 0.0 mm
15:54 21.9 °C 9.1 °C 1010.5 hPa SSO 5.4 km/h 11.1 km/h 44% 0.0 mm
15:59 21.8 °C 9.3 °C 1010.4 hPa SSO 5.8 km/h 13 km/h 44.7% 0.0 mm
16:04 21.8 °C 9.3 °C 1010.4 hPa Sur 7.1 km/h 13 km/h 45% 0.0 mm
16:09 21.7 °C 9.6 °C 1010.4 hPa Sur 7.6 km/h 12.9 km/h 46% 0.0 mm
16:14 21.7 °C 9.6 °C 1010.2 hPa Sur 6.8 km/h 9.7 km/h 46% 0.0 mm
16:19 21.7 °C 9.5 °C 1010.2 hPa SSE 6.5 km/h 9.7 km/h 46% 0.0 mm
16:24 21.6 °C 9.5 °C 1010.2 hPa Sur 6 km/h 11.1 km/h 46% 0.0 mm
16:29 21.6 °C 9.5 °C 1010.0 hPa Sur 5.8 km/h 11.3 km/h 46% 0.0 mm
16:34 21.6 °C 9.5 °C 1010.0 hPa Sur 6.2 km/h 10 km/h 46% 0.0 mm
16:39 21.6 °C 9.6 °C 1010.0 hPa Sur 6.5 km/h 11.3 km/h 46.6% 0.0 mm
16:44 21.5 °C 9.7 °C 1009.9 hPa SSE 6.5 km/h 11.9 km/h 47% 0.0 mm
16:49 21.4 °C 9.9 °C 1009.9 hPa SSE 6.5 km/h 11.3 km/h 47.7% 0.0 mm
16:54 21.3 °C 10 °C 1009.9 hPa SSE 6.8 km/h 11.3 km/h 48.4% 0.0 mm
16:59 21.2 °C 10.1 °C 1009.6 hPa SSE 6.9 km/h 10 km/h 49% 0.0 mm
17:04 21.2 °C 10.2 °C 1009.6 hPa SSE 6.1 km/h 9.7 km/h 49.8% 0.0 mm
17:09 21.1 °C 10.4 °C 1009.7 hPa Sur 5.8 km/h 10 km/h 50.6% 0.0 mm
17:14 20.9 °C 10.5 °C 1009.7 hPa Sur 6.2 km/h 10 km/h 51.4% 0.0 mm
17:19 20.9 °C 10.6 °C 1009.7 hPa Sur 6.5 km/h 9.7 km/h 52% 0.0 mm
17:24 20.8 °C 10.8 °C 1009.7 hPa Sur 5.5 km/h 9.7 km/h 52.7% 0.0 mm
17:29 20.7 °C 10.9 °C 1009.6 hPa SE 5 km/h 7.4 km/h 53.3% 0.0 mm
17:34 20.5 °C 11.4 °C 1009.6 hPa SE 4.8 km/h 9.3 km/h 55.7% 0.0 mm
17:39 20.3 °C 11.6 °C 1009.7 hPa SE 4.7 km/h 9.7 km/h 57.5% 0.0 mm
17:44 20.1 °C 11.6 °C 1009.7 hPa SSE 5.4 km/h 8 km/h 58.3% 0.0 mm
17:49 19.9 °C 11.6 °C 1009.7 hPa Sur 5.8 km/h 8.4 km/h 59% 0.0 mm
17:54 19.8 °C 11.7 °C 1009.8 hPa SO 5.8 km/h 8.7 km/h 59.8% 0.0 mm
17:59 19.7 °C 11.8 °C 1009.8 hPa SO 5.8 km/h 13.7 km/h 60.6% 0.0 mm
18:04 19.4 °C 12 °C 1009.8 hPa SO 6.2 km/h 15.6 km/h 62.2% 0.0 mm
18:09 19.1 °C 12 °C 1010.0 hPa SO 6.5 km/h 17.2 km/h 63.5% 0.0 mm
18:14 18.8 °C 11.8 °C 1010.0 hPa SSO 7.2 km/h 19.8 km/h 64% 0.0 mm
18:19 18.5 °C 11.7 °C 1010.0 hPa SSO 7.6 km/h 25.9 km/h 64.8% 0.0 mm
18:24 18.3 °C 11.6 °C 1010.3 hPa SO 10.8 km/h 25.7 km/h 65% 0.0 mm
18:29 18.2 °C 11.7 °C 1010.3 hPa SSO 12.2 km/h 27.8 km/h 66% 0.0 mm
18:34 18 °C 11.7 °C 1010.3 hPa SO 13.4 km/h 27.4 km/h 66.8% 0.0 mm
18:39 17.8 °C 11.8 °C 1010.5 hPa SSO 14 km/h 25.7 km/h 67.8% 0.0 mm
18:44 17.7 °C 11.8 °C 1010.5 hPa SSO 12.8 km/h 22.5 km/h 68.7% 0.0 mm
18:49 17.5 °C 11.9 °C 1010.5 hPa SSO 12.2 km/h 18.5 km/h 69.7% 0.0 mm
18:54 17.3 °C 12 °C 1010.6 hPa SSO 9.8 km/h 19.3 km/h 70.7% 0.0 mm
18:59 17.2 °C 12.1 °C 1010.6 hPa SSO 8.7 km/h 19 km/h 71.9% 0.0 mm
19:04 17.2 °C 12.3 °C 1010.6 hPa SSO 9.3 km/h 19.8 km/h 73% 0.0 mm
19:09 17.1 °C 12.4 °C 1010.6 hPa SSO 9.5 km/h 19.3 km/h 73.7% 0.0 mm
19:14 17.1 °C 12.5 °C 1010.4 hPa SO 8.7 km/h 17.7 km/h 74.4% 0.0 mm
19:19 17 °C 12.6 °C 1010.4 hPa SSO 8.4 km/h 20.4 km/h 75.3% 0.0 mm
19:24 16.9 °C 12.7 °C 1010.4 hPa Sur 9.1 km/h 20.9 km/h 76% 0.0 mm
19:29 16.9 °C 12.7 °C 1010.0 hPa Sur 9.5 km/h 12.9 km/h 76% 0.0 mm
19:34 16.9 °C 12.7 °C 1010.0 hPa SSO 7.4 km/h 11.3 km/h 76.6% 0.0 mm
19:39 16.8 °C 12.7 °C 1010.1 hPa SO 6.5 km/h 14.8 km/h 77% 0.0 mm
19:44 16.7 °C 12.7 °C 1010.1 hPa SO 6.8 km/h 14.5 km/h 77% 0.0 mm
19:49 16.7 °C 12.8 °C 1010.1 hPa OSO 6.9 km/h 14.8 km/h 77.8% 0.0 mm
19:54 16.7 °C 12.8 °C 1010.3 hPa SO 6.2 km/h 14.5 km/h 78% 0.0 mm
19:59 16.6 °C 12.8 °C 1010.3 hPa SO 5.8 km/h 11.3 km/h 78.3% 0.0 mm
20:04 16.6 °C 12.9 °C 1010.3 hPa SSO 5.8 km/h 9.7 km/h 79% 0.0 mm
20:09 16.5 °C 12.8 °C 1010.4 hPa SSO 5.8 km/h 8 km/h 79% 0.0 mm
20:14 16.5 °C 12.8 °C 1010.4 hPa SSO 4 km/h 8 km/h 79% 0.0 mm
20:19 16.4 °C 12.7 °C 1010.4 hPa SO 3.2 km/h 8.7 km/h 79% 0.0 mm
20:24 16.4 °C 12.7 °C 1010.5 hPa SSO 4.2 km/h 11.9 km/h 79% 0.0 mm
20:29 16.3 °C 12.7 °C 1010.5 hPa SSO 4.7 km/h 11.9 km/h 79% 0.0 mm
20:34 16.3 °C 12.7 °C 1010.5 hPa SSO 7.2 km/h 13.7 km/h 79.1% 0.0 mm
20:39 16.2 °C 12.7 °C 1010.5 hPa SO 8.4 km/h 14.5 km/h 80% 0.0 mm
20:44 16.2 °C 12.7 °C 1010.5 hPa Sur 7.8 km/h 12.9 km/h 80% 0.0 mm
20:49 16.1 °C 12.7 °C 1010.5 hPa Sur 7.6 km/h 13 km/h 80% 0.0 mm
20:54 16.1 °C 12.6 °C 1010.5 hPa Sur 7.6 km/h 13 km/h 80% 0.0 mm
20:59 15.9 °C 12.5 °C 1010.3 hPa Sur 7.6 km/h 12.9 km/h 80.1% 0.0 mm
21:04 15.9 °C 12.7 °C 1010.3 hPa SSO 6.8 km/h 10.3 km/h 81% 0.0 mm
21:09 15.9 °C 12.6 °C 1010.3 hPa SSO 6.5 km/h 13.7 km/h 81% 0.0 mm
21:14 15.9 °C 12.6 °C 1010.3 hPa SSO 7.2 km/h 15.6 km/h 81% 0.0 mm
21:19 15.9 °C 12.5 °C 1010.3 hPa SO 7.6 km/h 16.1 km/h 80.3% 0.0 mm
21:24 15.9 °C 12.4 °C 1010.3 hPa SSO 8.1 km/h 16.1 km/h 80% 0.0 mm
21:29 15.9 °C 12.4 °C 1010.2 hPa SSO 8.4 km/h 11.3 km/h 80% 0.0 mm
21:34 15.9 °C 12.3 °C 1010.2 hPa OSO 6.6 km/h 11.9 km/h 79.1% 0.0 mm
21:39 15.9 °C 12.3 °C 1010.2 hPa SO 5.8 km/h 11.3 km/h 79% 0.0 mm
21:44 15.9 °C 12.3 °C 1010.1 hPa SO 5.8 km/h 10 km/h 79% 0.0 mm
21:49 15.9 °C 12.3 °C 1010.1 hPa SO 5.8 km/h 11.1 km/h 79% 0.0 mm
21:54 15.9 °C 12.3 °C 1010.1 hPa SO 6.2 km/h 11.3 km/h 79% 0.0 mm
21:59 15.9 °C 12.3 °C 1010.1 hPa SSO 6.5 km/h 13 km/h 79% 0.0 mm
22:04 15.9 °C 12.3 °C 1010.1 hPa SSO 6.5 km/h 12.9 km/h 79% 0.0 mm
22:09 15.8 °C 12.2 °C 1010.1 hPa SSO 6.5 km/h 13.7 km/h 79% 0.0 mm
22:14 15.7 °C 12.2 °C 1010.0 hPa SSO 7.2 km/h 17.2 km/h 79.5% 0.0 mm
22:19 15.7 °C 12.3 °C 1010.0 hPa SSO 7.6 km/h 18 km/h 80% 0.0 mm
22:24 15.7 °C 12.3 °C 1010.0 hPa SSO 8.9 km/h 19.3 km/h 80% 0.0 mm
22:29 15.6 °C 12.2 °C 1009.9 hPa SO 9.5 km/h 19.3 km/h 80% 0.0 mm
22:34 15.6 °C 12.2 °C 1009.9 hPa SSO 9.5 km/h 20.4 km/h 80% 0.0 mm
22:39 15.6 °C 12.1 °C 1009.9 hPa SSO 9.5 km/h 20.9 km/h 80% 0.0 mm
22:44 15.5 °C 12.1 °C 1009.9 hPa SO 10.6 km/h 20.4 km/h 80% 0.0 mm
22:49 15.5 °C 12.1 °C 1009.9 hPa SSO 11.1 km/h 20.9 km/h 80% 0.0 mm
22:54 15.4 °C 12 °C 1010.0 hPa SSO 10 km/h 13 km/h 80.2% 0.0 mm
22:59 15.4 °C 12.2 °C 1010.0 hPa SSO 9.5 km/h 18.3 km/h 81% 0.0 mm
23:04 15.4 °C 12.2 °C 1010.0 hPa Sur 9.5 km/h 19.3 km/h 81% 0.0 mm
23:09 15.3 °C 12.1 °C 1010.0 hPa Sur 9.5 km/h 19.3 km/h 81% 0.0 mm
23:14 15.2 °C 12 °C 1010.0 hPa SSE 9.8 km/h 16.1 km/h 81% 0.0 mm
23:19 14.9 °C 11.6 °C 1010.0 hPa SSE 10 km/h 14.8 km/h 81% 0.0 mm
23:24 14.5 °C 11.4 °C 1010.0 hPa SSE 10 km/h 14.5 km/h 82.1% 0.0 mm
23:29 14.3 °C 11.5 °C 1010.0 hPa Sur 10 km/h 14.8 km/h 83.4% 0.0 mm
23:34 14.3 °C 11.6 °C 1010.0 hPa Sur 9.6 km/h 14.8 km/h 84% 0.0 mm
23:39 14.3 °C 11.6 °C 1010.2 hPa Sur 9.5 km/h 14.5 km/h 84% 0.0 mm
23:44 14.4 °C 11.7 °C 1010.2 hPa SSE 8.9 km/h 13.7 km/h 84% 0.0 mm
23:49 14.4 °C 11.7 °C 1010.2 hPa SSE 8.7 km/h 16.7 km/h 84% 0.0 mm
23:54 14.3 °C 11.5 °C 1010.2 hPa SE 9.6 km/h 16.1 km/h 83.3% 0.0 mm
23:59 14 °C 11.2 °C 1009.6 hPa SSE 10 km/h 14.5 km/h 83% 0.0 mm
Murcia-Puente Tocinos, Espa?a
Compliments of Weather Underground - 3 mb

La estación de MeteoMurcia.com, publica sus datos en los siguientes proyectos:

Weather Underground PWS IMURCIAP2 Meteoclimatic www.awekas.at

W3Counter
Web Analytics